Terminal Aerodrome Forecast
Issued by NWS

Home | Current Version | Previous Version | Text Only | Print | Product List | Glossary On
Versions: 1 2 3 4 5 6 7 8 9 10 11 12 13 14 15 16 17 18 19
000
FTUS43 KBIS 300500
TAFDIK
TAF
KDIK 300536Z 3006/3106 12005KT P6SM SKC
     FM301500 15014KT P6SM SCT070
     FM302300 16015KT P6SM VCTS BKN060CB
     FM310400 28008KT P6SM BKN100=

USA.gov is the U.S. government's official web portal to all federal, state and local government web resources and services.